PWSweather.com
Personal Weather Stations
Station Observations
PWSTHORN2
Thornton, Nh Usa, Thornton, NH 03285

Thornton, Nh UsaThornton, NH 03285

Lat: 43.8870699, Lon: -71.6632763

Elevation: 640

Station Type: Ambient WS 2080

High Low Average
Temperature 63.1°F17.3°C 48.2°F9.0°C 53.3°F11.8°C
Dew Point 49.9°F9.9°C 35.8°F2.1°C 40.6°F4.8°C
Winds 8.3 mph 13.4 kmh Calm Calm 1.0 mph S1.6 kmh S
Wind Gusts 16.8 mph27.0 kmh -- 3.0 mph4.8 kmh
Humidity 62% 62% 62%
Pressure 29.67 in1004.7 mb 29.30 in992.2 mb -
Precipitation 0.09 in2.3 mm - -
Hour Temp Dew Point Humidity Winds Wind Gusts Pressure Precip Precip Rate Daily Precip Total
12:00 AM 51.8°F11.0°C 39.2°F4.0°C 62% Calm Calm -- 29.67 in1004.7 mb 0.00 in0.0 mm 0.00 in0.0 mm 0.00 in0.0 mm
12:05 AM 51.8°F11.0°C 39.2°F4.0°C 62% Calm Calm -- 29.67 in1004.7 mb 0.00 in0.0 mm 0.00 in0.0 mm 0.00 in0.0 mm
12:10 AM 51.6°F10.9°C 39.0°F3.9°C 62% Calm Calm -- 29.67 in1004.7 mb 0.00 in0.0 mm 0.00 in0.0 mm 0.00 in0.0 mm
12:15 AM 51.6°F10.9°C 39.0°F3.9°C 62% Calm Calm -- 29.67 in1004.7 mb 0.00 in0.0 mm 0.00 in0.0 mm 0.00 in0.0 mm
12:20 AM 51.3°F10.7°C 38.7°F3.7°C 62% Calm Calm -- 29.66 in1004.4 mb 0.00 in0.0 mm 0.00 in0.0 mm 0.00 in0.0 mm
12:25 AM 50.9°F10.5°C 38.4°F3.6°C 62% Calm Calm -- 29.67 in1004.7 mb 0.00 in0.0 mm 0.00 in0.0 mm 0.00 in0.0 mm
12:30 AM 50.7°F10.4°C 38.2°F3.4°C 62% Calm Calm -- 29.67 in1004.7 mb 0.00 in0.0 mm 0.00 in0.0 mm 0.00 in0.0 mm
12:35 AM 50.7°F10.4°C 38.2°F3.4°C 62% Calm Calm -- 29.67 in1004.7 mb 0.00 in0.0 mm 0.00 in0.0 mm 0.00 in0.0 mm
12:40 AM 50.5°F10.3°C 38.0°F3.3°C 62% Calm Calm -- 29.67 in1004.7 mb 0.00 in0.0 mm 0.00 in0.0 mm 0.00 in0.0 mm
12:45 AM 50.4°F10.2°C 37.8°F3.2°C 62% Calm Calm -- 29.67 in1004.7 mb 0.00 in0.0 mm 0.00 in0.0 mm 0.00 in0.0 mm
12:50 AM 50.4°F10.2°C 37.8°F3.2°C 62% Calm Calm -- 29.67 in1004.7 mb 0.00 in0.0 mm 0.00 in0.0 mm 0.00 in0.0 mm
12:55 AM 50.2°F10.1°C 37.7°F3.2°C 62% Calm Calm -- 29.67 in1004.7 mb 0.00 in0.0 mm 0.00 in0.0 mm 0.00 in0.0 mm
01:00 AM 50.2°F10.1°C 37.7°F3.2°C 62% Calm Calm -- 29.66 in1004.4 mb 0.00 in0.0 mm 0.00 in0.0 mm 0.00 in0.0 mm
01:05 AM 50.2°F10.1°C 37.7°F3.2°C 62% Calm Calm -- 29.67 in1004.7 mb 0.00 in0.0 mm 0.00 in0.0 mm 0.00 in0.0 mm
01:10 AM 50.2°F10.1°C 37.7°F3.2°C 62% Calm Calm -- 29.67 in1004.7 mb 0.00 in0.0 mm 0.00 in0.0 mm 0.00 in0.0 mm
01:15 AM 50.0°F10.0°C 37.5°F3.1°C 62% Calm Calm -- 29.66 in1004.4 mb 0.00 in0.0 mm 0.00 in0.0 mm 0.00 in0.0 mm
01:20 AM 50.0°F10.0°C 37.5°F3.1°C 62% Calm Calm -- 29.65 in1004.1 mb 0.00 in0.0 mm 0.00 in0.0 mm 0.00 in0.0 mm
01:25 AM 50.0°F10.0°C 37.5°F3.1°C 62% Calm Calm -- 29.65 in1004.1 mb 0.00 in0.0 mm 0.00 in0.0 mm 0.00 in0.0 mm
01:30 AM 50.0°F10.0°C 37.5°F3.1°C 62% Calm Calm -- 29.64 in1003.7 mb 0.00 in0.0 mm 0.00 in0.0 mm 0.00 in0.0 mm
01:35 AM 50.0°F10.0°C 37.5°F3.1°C 62% Calm Calm 0.7 mph1.1 kmh 29.64 in1003.7 mb 0.00 in0.0 mm 0.00 in0.0 mm 0.00 in0.0 mm
01:40 AM 49.8°F9.9°C 37.3°F2.9°C 62% Calm Calm 0.7 mph1.1 kmh 29.64 in1003.7 mb 0.00 in0.0 mm 0.00 in0.0 mm 0.00 in0.0 mm
01:45 AM 49.8°F9.9°C 37.3°F2.9°C 62% Calm Calm -- 29.64 in1003.7 mb 0.00 in0.0 mm 0.00 in0.0 mm 0.00 in0.0 mm
01:50 AM 50.0°F10.0°C 37.5°F3.1°C 62% Calm Calm 1.6 mph2.6 kmh 29.65 in1004.1 mb 0.00 in0.0 mm 0.00 in0.0 mm 0.00 in0.0 mm
01:55 AM 50.0°F10.0°C 37.5°F3.1°C 62% Calm Calm 1.6 mph2.6 kmh 29.64 in1003.7 mb 0.00 in0.0 mm 0.00 in0.0 mm 0.00 in0.0 mm
02:00 AM 50.0°F10.0°C 37.5°F3.1°C 62% Calm Calm 0.7 mph1.1 kmh 29.64 in1003.7 mb 0.00 in0.0 mm 0.00 in0.0 mm 0.00 in0.0 mm
02:05 AM 50.0°F10.0°C 37.5°F3.1°C 62% Calm Calm -- 29.63 in1003.4 mb 0.00 in0.0 mm 0.00 in0.0 mm 0.00 in0.0 mm
02:10 AM 50.0°F10.0°C 37.5°F3.1°C 62% Calm Calm -- 29.64 in1003.7 mb 0.00 in0.0 mm 0.00 in0.0 mm 0.00 in0.0 mm
02:15 AM 49.8°F9.9°C 37.3°F2.9°C 62% Calm Calm -- 29.64 in1003.7 mb 0.00 in0.0 mm 0.00 in0.0 mm 0.00 in0.0 mm
02:20 AM 49.8°F9.9°C 37.3°F2.9°C 62% Calm Calm -- 29.64 in1003.7 mb 0.00 in0.0 mm 0.00 in0.0 mm 0.00 in0.0 mm
02:25 AM 49.6°F9.8°C 37.2°F2.9°C 62% Calm Calm -- 29.64 in1003.7 mb 0.00 in0.0 mm 0.00 in0.0 mm 0.00 in0.0 mm
02:30 AM 49.6°F9.8°C 37.2°F2.9°C 62% Calm Calm -- 29.64 in1003.7 mb 0.00 in0.0 mm 0.00 in0.0 mm 0.00 in0.0 mm
02:35 AM 49.6°F9.8°C 37.2°F2.9°C 62% Calm Calm -- 29.64 in1003.7 mb 0.00 in0.0 mm 0.00 in0.0 mm 0.00 in0.0 mm
02:40 AM 49.5°F9.7°C 37.0°F2.8°C 62% Calm Calm -- 29.63 in1003.4 mb 0.00 in0.0 mm 0.00 in0.0 mm 0.00 in0.0 mm
02:45 AM 49.5°F9.7°C 37.0°F2.8°C 62% Calm Calm -- 29.63 in1003.4 mb 0.00 in0.0 mm 0.00 in0.0 mm 0.00 in0.0 mm
02:50 AM 49.5°F9.7°C 37.0°F2.8°C 62% Calm Calm -- 29.62 in1003.0 mb 0.00 in0.0 mm 0.00 in0.0 mm 0.00 in0.0 mm
02:55 AM 49.3°F9.6°C 36.8°F2.7°C 62% Calm Calm -- 29.63 in1003.4 mb 0.00 in0.0 mm 0.00 in0.0 mm 0.00 in0.0 mm
03:00 AM 49.5°F9.7°C 37.0°F2.8°C 62% Calm Calm -- 29.63 in1003.4 mb 0.00 in0.0 mm 0.00 in0.0 mm 0.00 in0.0 mm
03:05 AM 49.3°F9.6°C 36.8°F2.7°C 62% Calm Calm -- 29.64 in1003.7 mb 0.00 in0.0 mm 0.00 in0.0 mm 0.00 in0.0 mm
03:10 AM 49.1°F9.5°C 36.7°F2.6°C 62% Calm Calm -- 29.63 in1003.4 mb 0.00 in0.0 mm 0.00 in0.0 mm 0.00 in0.0 mm
03:15 AM 49.1°F9.5°C 36.7°F2.6°C 62% Calm Calm -- 29.64 in1003.7 mb 0.00 in0.0 mm 0.00 in0.0 mm 0.00 in0.0 mm
03:20 AM 49.1°F9.5°C 36.7°F2.6°C 62% Calm Calm -- 29.63 in1003.4 mb 0.00 in0.0 mm 0.00 in0.0 mm 0.00 in0.0 mm
03:25 AM 49.3°F9.6°C 36.8°F2.7°C 62% Calm Calm -- 29.63 in1003.4 mb 0.00 in0.0 mm 0.00 in0.0 mm 0.00 in0.0 mm
03:30 AM 49.1°F9.5°C 36.7°F2.6°C 62% Calm Calm -- 29.64 in1003.7 mb 0.00 in0.0 mm 0.00 in0.0 mm 0.00 in0.0 mm
03:35 AM 49.1°F9.5°C 36.7°F2.6°C 62% Calm Calm -- 29.63 in1003.4 mb 0.00 in0.0 mm 0.00 in0.0 mm 0.00 in0.0 mm
03:40 AM 49.1°F9.5°C 36.7°F2.6°C 62% Calm Calm -- 29.63 in1003.4 mb 0.00 in0.0 mm 0.00 in0.0 mm 0.00 in0.0 mm
03:45 AM 49.3°F9.6°C 36.8°F2.7°C 62% Calm Calm -- 29.64 in1003.7 mb 0.00 in0.0 mm 0.00 in0.0 mm 0.00 in0.0 mm
03:50 AM 49.1°F9.5°C 36.7°F2.6°C 62% Calm Calm -- 29.65 in1004.1 mb 0.00 in0.0 mm 0.00 in0.0 mm 0.00 in0.0 mm
03:55 AM 48.9°F9.4°C 36.5°F2.5°C 62% Calm Calm 0.7 mph1.1 kmh 29.64 in1003.7 mb 0.00 in0.0 mm 0.00 in0.0 mm 0.00 in0.0 mm
04:00 AM 48.7°F9.3°C 36.3°F2.4°C 62% Calm Calm 0.7 mph1.1 kmh 29.64 in1003.7 mb 0.00 in0.0 mm 0.00 in0.0 mm 0.00 in0.0 mm
04:05 AM 48.6°F9.2°C 36.1°F2.3°C 62% Calm Calm -- 29.62 in1003.0 mb 0.00 in0.0 mm 0.00 in0.0 mm 0.00 in0.0 mm
04:10 AM 48.2°F9.0°C 35.8°F2.1°C 62% Calm Calm -- 29.64 in1003.7 mb 0.00 in0.0 mm 0.00 in0.0 mm 0.00 in0.0 mm
04:15 AM 48.2°F9.0°C 35.8°F2.1°C 62% Calm Calm -- 29.63 in1003.4 mb 0.00 in0.0 mm 0.00 in0.0 mm 0.00 in0.0 mm
04:20 AM 48.2°F9.0°C 35.8°F2.1°C 62% Calm Calm -- 29.63 in1003.4 mb 0.00 in0.0 mm 0.00 in0.0 mm 0.00 in0.0 mm
04:25 AM 48.2°F9.0°C 35.8°F2.1°C 62% Calm Calm -- 29.64 in1003.7 mb 0.00 in0.0 mm 0.00 in0.0 mm 0.00 in0.0 mm
04:30 AM 48.2°F9.0°C 35.8°F2.1°C 62% Calm Calm -- 29.63 in1003.4 mb 0.00 in0.0 mm 0.00 in0.0 mm 0.00 in0.0 mm
04:35 AM 48.4°F9.1°C 36.0°F2.2°C 62% Calm Calm -- 29.63 in1003.4 mb 0.00 in0.0 mm 0.00 in0.0 mm 0.00 in0.0 mm
04:40 AM 48.4°F9.1°C 36.0°F2.2°C 62% Calm Calm 0.7 mph1.1 kmh 29.64 in1003.7 mb 0.00 in0.0 mm 0.00 in0.0 mm 0.00 in0.0 mm
04:45 AM 48.7°F9.3°C 36.3°F2.4°C 62% Calm Calm 0.7 mph1.1 kmh 29.63 in1003.4 mb 0.00 in0.0 mm 0.00 in0.0 mm 0.00 in0.0 mm
04:50 AM 48.9°F9.4°C 36.5°F2.5°C 62% Calm Calm -- 29.63 in1003.4 mb 0.00 in0.0 mm 0.00 in0.0 mm 0.00 in0.0 mm
04:55 AM 48.9°F9.4°C 36.5°F2.5°C 62% Calm Calm -- 29.63 in1003.4 mb 0.00 in0.0 mm 0.00 in0.0 mm 0.00 in0.0 mm
05:00 AM 48.7°F9.3°C 36.3°F2.4°C 62% Calm Calm -- 29.63 in1003.4 mb 0.00 in0.0 mm 0.00 in0.0 mm 0.00 in0.0 mm
05:05 AM 48.7°F9.3°C 36.3°F2.4°C 62% Calm Calm -- 29.63 in1003.4 mb 0.00 in0.0 mm 0.00 in0.0 mm 0.00 in0.0 mm
05:10 AM 48.9°F9.4°C 36.5°F2.5°C 62% Calm Calm -- 29.63 in1003.4 mb 0.00 in0.0 mm 0.00 in0.0 mm 0.00 in0.0 mm
05:15 AM 49.1°F9.5°C 36.7°F2.6°C 62% Calm Calm -- 29.63 in1003.4 mb 0.00 in0.0 mm 0.00 in0.0 mm 0.00 in0.0 mm
05:20 AM 49.3°F9.6°C 36.8°F2.7°C 62% Calm Calm -- 29.63 in1003.4 mb 0.00 in0.0 mm 0.00 in0.0 mm 0.00 in0.0 mm
05:25 AM 49.6°F9.8°C 37.2°F2.9°C 62% Calm Calm -- 29.63 in1003.4 mb 0.00 in0.0 mm 0.00 in0.0 mm 0.00 in0.0 mm
05:30 AM 49.6°F9.8°C 37.2°F2.9°C 62% Calm Calm -- 29.63 in1003.4 mb 0.00 in0.0 mm 0.00 in0.0 mm 0.00 in0.0 mm
05:35 AM 49.8°F9.9°C 37.3°F2.9°C 62% Calm Calm -- 29.63 in1003.4 mb 0.00 in0.0 mm 0.00 in0.0 mm 0.00 in0.0 mm
05:40 AM 50.0°F10.0°C 37.5°F3.1°C 62% Calm Calm -- 29.63 in1003.4 mb 0.00 in0.0 mm 0.00 in0.0 mm 0.00 in0.0 mm
05:45 AM 50.2°F10.1°C 37.7°F3.2°C 62% Calm Calm -- 29.63 in1003.4 mb 0.00 in0.0 mm 0.00 in0.0 mm 0.00 in0.0 mm
05:50 AM 50.2°F10.1°C 37.7°F3.2°C 62% Calm Calm -- 29.63 in1003.4 mb 0.00 in0.0 mm 0.00 in0.0 mm 0.00 in0.0 mm
05:55 AM 50.2°F10.1°C 37.7°F3.2°C 62% Calm Calm -- 29.62 in1003.0 mb 0.00 in0.0 mm 0.00 in0.0 mm 0.00 in0.0 mm
06:00 AM 50.4°F10.2°C 37.8°F3.2°C 62% Calm Calm -- 29.63 in1003.4 mb 0.00 in0.0 mm 0.00 in0.0 mm 0.00 in0.0 mm
06:05 AM 50.4°F10.2°C 37.8°F3.2°C 62% Calm Calm -- 29.62 in1003.0 mb 0.00 in0.0 mm 0.00 in0.0 mm 0.00 in0.0 mm
06:10 AM 50.7°F10.4°C 38.2°F3.4°C 62% Calm Calm -- 29.63 in1003.4 mb 0.00 in0.0 mm 0.00 in0.0 mm 0.00 in0.0 mm
06:15 AM 50.9°F10.5°C 38.4°F3.6°C 62% Calm Calm -- 29.62 in1003.0 mb 0.00 in0.0 mm 0.00 in0.0 mm 0.00 in0.0 mm
06:20 AM 51.3°F10.7°C 38.7°F3.7°C 62% Calm Calm -- 29.62 in1003.0 mb 0.00 in0.0 mm 0.00 in0.0 mm 0.00 in0.0 mm
06:25 AM 51.6°F10.9°C 39.0°F3.9°C 62% Calm Calm -- 29.62 in1003.0 mb 0.00 in0.0 mm 0.00 in0.0 mm 0.00 in0.0 mm
06:30 AM 51.6°F10.9°C 39.0°F3.9°C 62% Calm Calm -- 29.62 in1003.0 mb 0.00 in0.0 mm 0.00 in0.0 mm 0.00 in0.0 mm
06:35 AM 51.4°F10.8°C 38.9°F3.8°C 62% Calm Calm -- 29.62 in1003.0 mb 0.00 in0.0 mm 0.00 in0.0 mm 0.00 in0.0 mm
06:40 AM 51.6°F10.9°C 39.0°F3.9°C 62% Calm Calm -- 29.62 in1003.0 mb 0.00 in0.0 mm 0.00 in0.0 mm 0.00 in0.0 mm
06:45 AM 51.6°F10.9°C 39.0°F3.9°C 62% Calm Calm -- 29.61 in1002.7 mb 0.00 in0.0 mm 0.00 in0.0 mm 0.00 in0.0 mm
06:50 AM 51.8°F11.0°C 39.2°F4.0°C 62% Calm Calm -- 29.62 in1003.0 mb 0.00 in0.0 mm 0.00 in0.0 mm 0.00 in0.0 mm
06:55 AM 52.0°F11.1°C 39.4°F4.1°C 62% Calm Calm -- 29.63 in1003.4 mb 0.00 in0.0 mm 0.00 in0.0 mm 0.00 in0.0 mm
07:00 AM 52.3°F11.3°C 39.7°F4.3°C 62% Calm Calm -- 29.63 in1003.4 mb 0.00 in0.0 mm 0.00 in0.0 mm 0.00 in0.0 mm
07:05 AM 52.5°F11.4°C 39.9°F4.4°C 62% Calm Calm -- 29.62 in1003.0 mb 0.00 in0.0 mm 0.00 in0.0 mm 0.00 in0.0 mm
07:10 AM 52.5°F11.4°C 39.9°F4.4°C 62% Calm Calm -- 29.62 in1003.0 mb 0.00 in0.0 mm 0.00 in0.0 mm 0.00 in0.0 mm
07:15 AM 52.5°F11.4°C 39.9°F4.4°C 62% Calm Calm 0.7 mph1.1 kmh 29.61 in1002.7 mb 0.00 in0.0 mm 0.00 in0.0 mm 0.00 in0.0 mm
07:20 AM 52.9°F11.6°C 40.2°F4.6°C 62% Calm Calm 0.7 mph1.1 kmh 29.61 in1002.7 mb 0.00 in0.0 mm 0.00 in0.0 mm 0.00 in0.0 mm
07:25 AM 53.2°F11.8°C 40.6°F4.8°C 62% Calm Calm -- 29.61 in1002.7 mb 0.00 in0.0 mm 0.00 in0.0 mm 0.00 in0.0 mm
07:30 AM 54.1°F12.3°C 41.4°F5.2°C 62% Calm Calm -- 29.61 in1002.7 mb 0.00 in0.0 mm 0.00 in0.0 mm 0.00 in0.0 mm
07:35 AM 54.7°F12.6°C 41.9°F5.5°C 62% Calm Calm -- 29.61 in1002.7 mb 0.00 in0.0 mm 0.00 in0.0 mm 0.00 in0.0 mm
07:40 AM 54.9°F12.7°C 42.1°F5.6°C 62% Calm Calm -- 29.61 in1002.7 mb 0.00 in0.0 mm 0.00 in0.0 mm 0.00 in0.0 mm
07:45 AM 55.2°F12.9°C 42.4°F5.8°C 62% Calm Calm 0.7 mph1.1 kmh 29.61 in1002.7 mb 0.00 in0.0 mm 0.00 in0.0 mm 0.00 in0.0 mm
07:50 AM 55.8°F13.2°C 42.9°F6.1°C 62% Calm Calm 0.7 mph1.1 kmh 29.61 in1002.7 mb 0.00 in0.0 mm 0.00 in0.0 mm 0.00 in0.0 mm
07:55 AM 56.8°F13.8°C 44.0°F6.7°C 62% Calm Calm -- 29.61 in1002.7 mb 0.00 in0.0 mm 0.00 in0.0 mm 0.00 in0.0 mm
08:00 AM 57.4°F14.1°C 44.5°F6.9°C 62% Calm Calm 0.7 mph1.1 kmh 29.61 in1002.7 mb 0.00 in0.0 mm 0.00 in0.0 mm 0.00 in0.0 mm
08:05 AM 57.7°F14.3°C 44.8°F7.1°C 62% Calm Calm 0.7 mph1.1 kmh 29.61 in1002.7 mb 0.00 in0.0 mm 0.00 in0.0 mm 0.00 in0.0 mm
08:10 AM 58.8°F14.9°C 45.8°F7.7°C 62% Calm Calm -- 29.61 in1002.7 mb 0.00 in0.0 mm 0.00 in0.0 mm 0.00 in0.0 mm
08:15 AM 59.4°F15.2°C 46.4°F8.0°C 62% Calm Calm -- 29.61 in1002.7 mb 0.00 in0.0 mm 0.00 in0.0 mm 0.00 in0.0 mm
08:20 AM 59.7°F15.4°C 46.7°F8.2°C 62% Calm Calm -- 29.60 in1002.4 mb 0.00 in0.0 mm 0.00 in0.0 mm 0.00 in0.0 mm
08:25 AM 59.7°F15.4°C 46.7°F8.2°C 62% Calm Calm -- 29.60 in1002.4 mb 0.00 in0.0 mm 0.00 in0.0 mm 0.00 in0.0 mm
08:30 AM 59.9°F15.5°C 46.9°F8.3°C 62% Calm Calm 0.7 mph1.1 kmh 29.60 in1002.4 mb 0.00 in0.0 mm 0.00 in0.0 mm 0.00 in0.0 mm
08:35 AM 60.6°F15.9°C 47.5°F8.6°C 62% Calm Calm 0.7 mph1.1 kmh 29.59 in1002.0 mb 0.00 in0.0 mm 0.00 in0.0 mm 0.00 in0.0 mm
08:40 AM 61.2°F16.2°C 48.1°F8.9°C 62% Calm Calm 0.7 mph1.1 kmh 29.60 in1002.4 mb 0.00 in0.0 mm 0.00 in0.0 mm 0.00 in0.0 mm
08:45 AM 62.1°F16.7°C 48.9°F9.4°C 62% Calm Calm 1.6 mph2.6 kmh 29.59 in1002.0 mb 0.00 in0.0 mm 0.00 in0.0 mm 0.00 in0.0 mm
08:50 AM 62.1°F16.7°C 48.9°F9.4°C 62% Calm Calm 1.6 mph2.6 kmh 29.59 in1002.0 mb 0.00 in0.0 mm 0.00 in0.0 mm 0.00 in0.0 mm
08:55 AM 62.8°F17.1°C 49.6°F9.8°C 62% Calm Calm 0.7 mph1.1 kmh 29.59 in1002.0 mb 0.00 in0.0 mm 0.00 in0.0 mm 0.00 in0.0 mm
09:00 AM 63.0°F17.2°C 49.8°F9.9°C 62% Calm Calm 0.7 mph1.1 kmh 29.59 in1002.0 mb 0.00 in0.0 mm 0.00 in0.0 mm 0.00 in0.0 mm
09:05 AM 63.1°F17.3°C 49.9°F9.9°C 62% Calm Calm 0.7 mph1.1 kmh 29.60 in1002.4 mb 0.00 in0.0 mm 0.00 in0.0 mm 0.00 in0.0 mm
09:10 AM 63.1°F17.3°C 49.9°F9.9°C 62% Calm Calm 5.4 mph8.7 kmh 29.60 in1002.4 mb 0.00 in0.0 mm 0.00 in0.0 mm 0.00 in0.0 mm
09:15 AM 62.4°F16.9°C 49.2°F9.6°C 62% 4.5 mph E7.2 kmh E 9.8 mph15.8 kmh 29.61 in1002.7 mb 0.00 in0.0 mm 0.00 in0.0 mm 0.00 in0.0 mm
09:20 AM 62.2°F16.8°C 49.1°F9.5°C 62% 1.6 mph ENE2.6 kmh ENE 9.8 mph15.8 kmh 29.60 in1002.4 mb 0.00 in0.0 mm 0.00 in0.0 mm 0.00 in0.0 mm
09:25 AM 62.1°F16.7°C 48.9°F9.4°C 62% 6.9 mph NE11.1 kmh NE 16.8 mph27.0 kmh 29.61 in1002.7 mb 0.00 in0.0 mm 0.00 in0.0 mm 0.00 in0.0 mm
09:30 AM 61.9°F16.6°C 48.7°F9.3°C 62% 6.0 mph NE9.7 kmh NE 16.8 mph27.0 kmh 29.61 in1002.7 mb 0.00 in0.0 mm 0.00 in0.0 mm 0.00 in0.0 mm
09:35 AM 61.9°F16.6°C 48.7°F9.3°C 62% 3.8 mph NE6.1 kmh NE 12.1 mph19.5 kmh 29.61 in1002.7 mb 0.00 in0.0 mm 0.00 in0.0 mm 0.00 in0.0 mm
09:40 AM 62.1°F16.7°C 48.9°F9.4°C 62% 3.8 mph NNE6.1 kmh NNE 13.6 mph21.9 kmh 29.61 in1002.7 mb 0.00 in0.0 mm 0.00 in0.0 mm 0.00 in0.0 mm
09:45 AM 61.9°F16.6°C 48.7°F9.3°C 62% 6.0 mph N9.7 kmh N 13.6 mph21.9 kmh 29.61 in1002.7 mb 0.00 in0.0 mm 0.00 in0.0 mm 0.00 in0.0 mm
09:50 AM 61.7°F16.5°C 48.6°F9.2°C 62% 3.8 mph NW6.1 kmh NW 11.4 mph18.3 kmh 29.62 in1003.0 mb 0.00 in0.0 mm 0.00 in0.0 mm 0.00 in0.0 mm
09:55 AM 62.2°F16.8°C 49.1°F9.5°C 62% 8.3 mph NW13.4 kmh NW 13.6 mph21.9 kmh 29.61 in1002.7 mb 0.00 in0.0 mm 0.00 in0.0 mm 0.00 in0.0 mm
10:00 AM 61.7°F16.5°C 48.6°F9.2°C 62% 4.5 mph NW7.2 kmh NW 13.6 mph21.9 kmh 29.61 in1002.7 mb 0.00 in0.0 mm 0.00 in0.0 mm 0.00 in0.0 mm
10:05 AM 61.2°F16.2°C 48.1°F8.9°C 62% 4.5 mph NW7.2 kmh NW 13.6 mph21.9 kmh 29.61 in1002.7 mb 0.00 in0.0 mm 0.00 in0.0 mm 0.00 in0.0 mm
10:10 AM 61.2°F16.2°C 48.1°F8.9°C 62% 0.7 mph NW1.1 kmh NW 11.4 mph18.3 kmh 29.60 in1002.4 mb 0.00 in0.0 mm 0.00 in0.0 mm 0.00 in0.0 mm
10:15 AM 60.8°F16.0°C 47.7°F8.7°C 62% 0.7 mph NW1.1 kmh NW 8.3 mph13.4 kmh 29.60 in1002.4 mb 0.00 in0.0 mm 0.00 in0.0 mm 0.00 in0.0 mm
10:20 AM 60.3°F15.7°C 47.2°F8.4°C 62% 1.6 mph NW2.6 kmh NW 8.3 mph13.4 kmh 29.60 in1002.4 mb 0.00 in0.0 mm 0.00 in0.0 mm 0.00 in0.0 mm
10:25 AM 60.1°F15.6°C 47.0°F8.3°C 62% 3.1 mph NW5.0 kmh NW 6.0 mph9.7 kmh 29.60 in1002.4 mb 0.00 in0.0 mm 0.00 in0.0 mm 0.00 in0.0 mm
10:30 AM 59.7°F15.4°C 46.7°F8.2°C 62% 3.8 mph NW6.1 kmh NW 9.8 mph15.8 kmh 29.60 in1002.4 mb 0.00 in0.0 mm 0.00 in0.0 mm 0.00 in0.0 mm
10:35 AM 59.7°F15.4°C 46.7°F8.2°C 62% 2.2 mph NW3.5 kmh NW 11.4 mph18.3 kmh 29.60 in1002.4 mb 0.00 in0.0 mm 0.00 in0.0 mm 0.00 in0.0 mm
10:40 AM 59.7°F15.4°C 46.7°F8.2°C 62% 0.7 mph NW1.1 kmh NW 11.4 mph18.3 kmh 29.59 in1002.0 mb 0.00 in0.0 mm 0.00 in0.0 mm 0.00 in0.0 mm
10:45 AM 59.2°F15.1°C 46.2°F7.9°C 62% 3.8 mph NW6.1 kmh NW 9.2 mph14.8 kmh 29.60 in1002.4 mb 0.00 in0.0 mm 0.00 in0.0 mm 0.00 in0.0 mm
10:50 AM 59.0°F15.0°C 46.0°F7.8°C 62% 3.1 mph NW5.0 kmh NW 9.2 mph14.8 kmh 29.60 in1002.4 mb 0.00 in0.0 mm 0.00 in0.0 mm 0.00 in0.0 mm
10:55 AM 58.8°F14.9°C 45.8°F7.7°C 62% 1.6 mph NW2.6 kmh NW 5.4 mph8.7 kmh 29.59 in1002.0 mb 0.00 in0.0 mm 0.00 in0.0 mm 0.00 in0.0 mm
11:00 AM 58.6°F14.8°C 45.7°F7.6°C 62% 0.7 mph NW1.1 kmh NW 10.7 mph17.2 kmh 29.59 in1002.0 mb 0.00 in0.0 mm 0.00 in0.0 mm 0.00 in0.0 mm
11:05 AM 58.6°F14.8°C 45.7°F7.6°C 62% 1.6 mph NW2.6 kmh NW 10.7 mph17.2 kmh 29.59 in1002.0 mb 0.00 in0.0 mm 0.00 in0.0 mm 0.00 in0.0 mm
11:10 AM 58.8°F14.9°C 45.8°F7.7°C 62% 3.8 mph NW6.1 kmh NW 8.3 mph13.4 kmh 29.59 in1002.0 mb 0.00 in0.0 mm 0.00 in0.0 mm 0.00 in0.0 mm
11:15 AM 58.6°F14.8°C 45.7°F7.6°C 62% 2.2 mph NW3.5 kmh NW 8.3 mph13.4 kmh 29.60 in1002.4 mb 0.00 in0.0 mm 0.00 in0.0 mm 0.00 in0.0 mm
11:20 AM 58.6°F14.8°C 45.7°F7.6°C 62% 1.6 mph NW2.6 kmh NW 9.2 mph14.8 kmh 29.60 in1002.4 mb 0.00 in0.0 mm 0.00 in0.0 mm 0.00 in0.0 mm
11:25 AM 58.3°F14.6°C 45.3°F7.4°C 62% 3.1 mph NW5.0 kmh NW 9.2 mph14.8 kmh 29.60 in1002.4 mb 0.00 in0.0 mm 0.00 in0.0 mm 0.00 in0.0 mm
11:30 AM 58.5°F14.7°C 45.5°F7.5°C 62% 1.6 mph NW2.6 kmh NW 7.6 mph12.2 kmh 29.60 in1002.4 mb 0.00 in0.0 mm 0.00 in0.0 mm 0.00 in0.0 mm
11:35 AM 58.6°F14.8°C 45.7°F7.6°C 62% 0.7 mph NW1.1 kmh NW 6.9 mph11.1 kmh 29.59 in1002.0 mb 0.00 in0.0 mm 0.00 in0.0 mm 0.00 in0.0 mm
11:40 AM 58.1°F14.5°C 45.2°F7.3°C 62% 1.6 mph NW2.6 kmh NW 6.9 mph11.1 kmh 29.59 in1002.0 mb 0.00 in0.0 mm 0.00 in0.0 mm 0.00 in0.0 mm
11:45 AM 57.2°F14.0°C 44.3°F6.8°C 62% 2.2 mph NW3.5 kmh NW 6.9 mph11.1 kmh 29.59 in1002.0 mb 0.00 in0.0 mm 0.00 in0.0 mm 0.00 in0.0 mm
11:50 AM 56.8°F13.8°C 44.0°F6.7°C 62% Calm Calm 5.4 mph8.7 kmh 29.59 in1002.0 mb 0.00 in0.0 mm 0.00 in0.0 mm 0.00 in0.0 mm
11:55 AM 57.0°F13.9°C 44.1°F6.7°C 62% 0.7 mph NW1.1 kmh NW 3.8 mph6.1 kmh 29.58 in1001.7 mb 0.00 in0.0 mm 0.00 in0.0 mm 0.00 in0.0 mm
12:00 PM 56.7°F13.7°C 43.8°F6.6°C 62% 1.6 mph NW2.6 kmh NW 3.1 mph5.0 kmh 29.58 in1001.7 mb 0.01 in0.3 mm 0.01 in0.3 mm 0.01 in0.3 mm
12:05 PM 56.3°F13.5°C 43.5°F6.4°C 62% 0.7 mph NW1.1 kmh NW 3.1 mph5.0 kmh 29.58 in1001.7 mb 0.01 in0.3 mm 0.00 in0.0 mm 0.01 in0.3 mm
12:10 PM 56.1°F13.4°C 43.3°F6.3°C 62% 2.2 mph NW3.5 kmh NW 6.9 mph11.1 kmh 29.57 in1001.4 mb 0.01 in0.3 mm 0.00 in0.0 mm 0.01 in0.3 mm
12:15 PM 55.8°F13.2°C 42.9°F6.1°C 62% 2.2 mph NW3.5 kmh NW 6.9 mph11.1 kmh 29.57 in1001.4 mb 0.01 in0.3 mm 0.00 in0.0 mm 0.01 in0.3 mm
12:20 PM 55.2°F12.9°C 42.4°F5.8°C 62% 4.5 mph NW7.2 kmh NW 8.3 mph13.4 kmh 29.57 in1001.4 mb 0.02 in0.5 mm 0.12 in3.0 mm 0.02 in0.5 mm
12:25 PM 54.9°F12.7°C 42.1°F5.6°C 62% 1.6 mph NW2.6 kmh NW 8.3 mph13.4 kmh 29.57 in1001.4 mb 0.02 in0.5 mm 0.00 in0.0 mm 0.02 in0.5 mm
12:30 PM 54.5°F12.5°C 41.8°F5.4°C 62% 2.2 mph NW3.5 kmh NW 5.4 mph8.7 kmh 29.57 in1001.4 mb 0.04 in1.0 mm 0.24 in6.1 mm 0.04 in1.0 mm
12:35 PM 54.3°F12.4°C 41.6°F5.3°C 62% 1.6 mph NW2.6 kmh NW 5.4 mph8.7 kmh 29.56 in1001.0 mb 0.04 in1.0 mm 0.00 in0.0 mm 0.04 in1.0 mm
12:40 PM 54.5°F12.5°C 41.8°F5.4°C 62% 0.7 mph NW1.1 kmh NW 4.5 mph7.2 kmh 29.56 in1001.0 mb 0.04 in1.0 mm 0.00 in0.0 mm 0.04 in1.0 mm
12:45 PM 54.3°F12.4°C 41.6°F5.3°C 62% 0.7 mph NW1.1 kmh NW 5.4 mph8.7 kmh 29.55 in1000.7 mb 0.04 in1.0 mm 0.00 in0.0 mm 0.04 in1.0 mm
12:50 PM 54.5°F12.5°C 41.8°F5.4°C 62% 0.7 mph NW1.1 kmh NW 5.4 mph8.7 kmh 29.56 in1001.0 mb 0.04 in1.0 mm 0.00 in0.0 mm 0.04 in1.0 mm
12:55 PM 54.7°F12.6°C 41.9°F5.5°C 62% Calm Calm 2.2 mph3.5 kmh 29.55 in1000.7 mb 0.05 in1.3 mm 0.12 in3.0 mm 0.05 in1.3 mm
01:00 PM 54.9°F12.7°C 42.1°F5.6°C 62% Calm Calm 3.1 mph5.0 kmh 29.55 in1000.7 mb 0.04 in1.0 mm 0.00 in0.0 mm 0.05 in1.3 mm
01:05 PM 54.1°F12.3°C 41.4°F5.2°C 62% 1.6 mph NW2.6 kmh NW 4.5 mph7.2 kmh 29.54 in1000.3 mb 0.04 in1.0 mm 0.00 in0.0 mm 0.05 in1.3 mm
01:10 PM 53.6°F12.0°C 40.9°F4.9°C 62% 0.7 mph NW1.1 kmh NW 4.5 mph7.2 kmh 29.54 in1000.3 mb 0.05 in1.3 mm 0.12 in3.0 mm 0.06 in1.5 mm
01:15 PM 53.2°F11.8°C 40.6°F4.8°C 62% 1.6 mph NW2.6 kmh NW 3.8 mph6.1 kmh 29.54 in1000.3 mb 0.05 in1.3 mm 0.00 in0.0 mm 0.06 in1.5 mm
01:20 PM 53.1°F11.7°C 40.4°F4.7°C 62% 0.7 mph NW1.1 kmh NW 3.8 mph6.1 kmh 29.53 in1000.0 mb 0.04 in1.0 mm 0.00 in0.0 mm 0.06 in1.5 mm
01:25 PM 53.6°F12.0°C 40.9°F4.9°C 62% 0.7 mph NW1.1 kmh NW 3.1 mph5.0 kmh 29.53 in1000.0 mb 0.04 in1.0 mm 0.00 in0.0 mm 0.06 in1.5 mm
01:30 PM 53.4°F11.9°C 40.7°F4.8°C 62% 1.6 mph NW2.6 kmh NW 4.5 mph7.2 kmh 29.52 in999.7 mb 0.02 in0.5 mm 0.00 in0.0 mm 0.06 in1.5 mm
01:35 PM 53.8°F12.1°C 41.1°F5.1°C 62% 0.7 mph NW1.1 kmh NW 4.5 mph7.2 kmh 29.53 in1000.0 mb 0.02 in0.5 mm 0.00 in0.0 mm 0.06 in1.5 mm
01:40 PM 53.4°F11.9°C 40.7°F4.8°C 62% 2.2 mph NW3.5 kmh NW 6.9 mph11.1 kmh 29.52 in999.7 mb 0.02 in0.5 mm 0.00 in0.0 mm 0.06 in1.5 mm
01:45 PM 53.4°F11.9°C 40.7°F4.8°C 62% Calm Calm 6.9 mph11.1 kmh 29.52 in999.7 mb 0.02 in0.5 mm 0.00 in0.0 mm 0.06 in1.5 mm
01:50 PM 53.6°F12.0°C 40.9°F4.9°C 62% 1.6 mph NW2.6 kmh NW 3.8 mph6.1 kmh 29.51 in999.3 mb 0.02 in0.5 mm 0.00 in0.0 mm 0.06 in1.5 mm
01:55 PM 53.2°F11.8°C 40.6°F4.8°C 62% 3.1 mph NW5.0 kmh NW 3.8 mph6.1 kmh 29.51 in999.3 mb 0.01 in0.3 mm 0.00 in0.0 mm 0.06 in1.5 mm
02:00 PM 53.2°F11.8°C 40.6°F4.8°C 62% 3.8 mph NW6.1 kmh NW 4.5 mph7.2 kmh 29.51 in999.3 mb 0.01 in0.3 mm 0.00 in0.0 mm 0.06 in1.5 mm
02:05 PM 53.8°F12.1°C 41.1°F5.1°C 62% 0.7 mph NW1.1 kmh NW 4.5 mph7.2 kmh 29.50 in999.0 mb 0.01 in0.3 mm 0.00 in0.0 mm 0.06 in1.5 mm
02:10 PM 53.4°F11.9°C 40.7°F4.8°C 62% Calm Calm 4.5 mph7.2 kmh 29.50 in999.0 mb 0.00 in0.0 mm 0.00 in0.0 mm 0.06 in1.5 mm
02:15 PM 53.8°F12.1°C 41.1°F5.1°C 62% Calm Calm 2.2 mph3.5 kmh 29.50 in999.0 mb 0.00 in0.0 mm 0.00 in0.0 mm 0.06 in1.5 mm
02:20 PM 54.1°F12.3°C 41.4°F5.2°C 62% Calm Calm 2.2 mph3.5 kmh 29.49 in998.6 mb 0.01 in0.3 mm 0.12 in3.0 mm 0.07 in1.8 mm
02:25 PM 54.7°F12.6°C 41.9°F5.5°C 62% 1.6 mph NW2.6 kmh NW 3.1 mph5.0 kmh 29.48 in998.3 mb 0.01 in0.3 mm 0.00 in0.0 mm 0.07 in1.8 mm
02:30 PM 54.1°F12.3°C 41.4°F5.2°C 62% 0.7 mph NW1.1 kmh NW 3.1 mph5.0 kmh 29.47 in998.0 mb 0.02 in0.5 mm 0.12 in3.0 mm 0.08 in2.0 mm
02:35 PM 54.3°F12.4°C 41.6°F5.3°C 62% 1.6 mph NW2.6 kmh NW 3.1 mph5.0 kmh 29.46 in997.6 mb 0.02 in0.5 mm 0.00 in0.0 mm 0.08 in2.0 mm
02:40 PM 54.0°F12.2°C 41.2°F5.1°C 62% 0.7 mph NW1.1 kmh NW 3.1 mph5.0 kmh 29.46 in997.6 mb 0.02 in0.5 mm 0.00 in0.0 mm 0.08 in2.0 mm
02:45 PM 53.4°F11.9°C 40.7°F4.8°C 62% 1.6 mph NW2.6 kmh NW 3.8 mph6.1 kmh 29.45 in997.3 mb 0.02 in0.5 mm 0.00 in0.0 mm 0.08 in2.0 mm
02:50 PM 52.7°F11.5°C 40.1°F4.5°C 62% 0.7 mph NW1.1 kmh NW 3.8 mph6.1 kmh 29.44 in997.0 mb 0.02 in0.5 mm 0.00 in0.0 mm 0.08 in2.0 mm
02:55 PM 52.7°F11.5°C 40.1°F4.5°C 62% Calm Calm 3.8 mph6.1 kmh 29.44 in997.0 mb 0.02 in0.5 mm 0.00 in0.0 mm 0.08 in2.0 mm
03:00 PM 53.2°F11.8°C 40.6°F4.8°C 62% 1.6 mph NW2.6 kmh NW 3.1 mph5.0 kmh 29.44 in997.0 mb 0.02 in0.5 mm 0.00 in0.0 mm 0.08 in2.0 mm
03:05 PM 53.1°F11.7°C 40.4°F4.7°C 62% 0.7 mph NW1.1 kmh NW 3.8 mph6.1 kmh 29.42 in996.3 mb 0.02 in0.5 mm 0.00 in0.0 mm 0.08 in2.0 mm
03:10 PM 52.9°F11.6°C 40.2°F4.6°C 62% 3.8 mph NW6.1 kmh NW 4.5 mph7.2 kmh 29.42 in996.3 mb 0.02 in0.5 mm 0.00 in0.0 mm 0.08 in2.0 mm
03:15 PM 52.7°F11.5°C 40.1°F4.5°C 62% 2.2 mph NW3.5 kmh NW 5.4 mph8.7 kmh 29.41 in995.9 mb 0.02 in0.5 mm 0.00 in0.0 mm 0.08 in2.0 mm
03:20 PM 52.9°F11.6°C 40.2°F4.6°C 62% 2.2 mph NW3.5 kmh NW 5.4 mph8.7 kmh 29.41 in995.9 mb 0.01 in0.3 mm 0.00 in0.0 mm 0.08 in2.0 mm
03:25 PM 53.1°F11.7°C 40.4°F4.7°C 62% 1.6 mph NW2.6 kmh NW 5.4 mph8.7 kmh 29.41 in995.9 mb 0.01 in0.3 mm 0.00 in0.0 mm 0.08 in2.0 mm
03:30 PM 53.2°F11.8°C 40.6°F4.8°C 62% 2.2 mph NW3.5 kmh NW 5.4 mph8.7 kmh 29.40 in995.6 mb 0.00 in0.0 mm 0.00 in0.0 mm 0.08 in2.0 mm
03:35 PM 53.4°F11.9°C 40.7°F4.8°C 62% 1.6 mph NW2.6 kmh NW 8.3 mph13.4 kmh 29.39 in995.3 mb 0.00 in0.0 mm 0.00 in0.0 mm 0.08 in2.0 mm
03:40 PM 53.4°F11.9°C 40.7°F4.8°C 62% 3.1 mph NW5.0 kmh NW 8.3 mph13.4 kmh 29.39 in995.3 mb 0.00 in0.0 mm 0.00 in0.0 mm 0.08 in2.0 mm
03:45 PM 53.8°F12.1°C 41.1°F5.1°C 62% 2.2 mph NW3.5 kmh NW 4.5 mph7.2 kmh 29.39 in995.3 mb 0.00 in0.0 mm 0.00 in0.0 mm 0.08 in2.0 mm
03:50 PM 53.8°F12.1°C 41.1°F5.1°C 62% 2.2 mph NW3.5 kmh NW 3.8 mph6.1 kmh 29.39 in995.3 mb 0.01 in0.3 mm 0.12 in3.0 mm 0.09 in2.3 mm
03:55 PM 53.6°F12.0°C 40.9°F4.9°C 62% 0.7 mph NW1.1 kmh NW 5.4 mph8.7 kmh 29.38 in994.9 mb 0.01 in0.3 mm 0.00 in0.0 mm 0.09 in2.3 mm
04:00 PM 53.6°F12.0°C 40.9°F4.9°C 62% 1.6 mph NW2.6 kmh NW 5.4 mph8.7 kmh 29.38 in994.9 mb 0.01 in0.3 mm 0.00 in0.0 mm 0.09 in2.3 mm
04:05 PM 53.8°F12.1°C 41.1°F5.1°C 62% 2.2 mph NW3.5 kmh NW 4.5 mph7.2 kmh 29.37 in994.6 mb 0.01 in0.3 mm 0.00 in0.0 mm 0.09 in2.3 mm
04:10 PM 53.6°F12.0°C 40.9°F4.9°C 62% 0.7 mph NW1.1 kmh NW 5.4 mph8.7 kmh 29.36 in994.2 mb 0.01 in0.3 mm 0.00 in0.0 mm 0.09 in2.3 mm
04:15 PM 53.4°F11.9°C 40.7°F4.8°C 62% 2.2 mph NW3.5 kmh NW 5.4 mph8.7 kmh 29.36 in994.2 mb 0.01 in0.3 mm 0.00 in0.0 mm 0.09 in2.3 mm
04:20 PM 53.4°F11.9°C 40.7°F4.8°C 62% 2.2 mph NW3.5 kmh NW 4.5 mph7.2 kmh 29.36 in994.2 mb 0.01 in0.3 mm 0.00 in0.0 mm 0.09 in2.3 mm
04:25 PM 53.4°F11.9°C 40.7°F4.8°C 62% 1.6 mph NW2.6 kmh NW 4.5 mph7.2 kmh 29.36 in994.2 mb 0.01 in0.3 mm 0.00 in0.0 mm 0.09 in2.3 mm
04:30 PM 53.4°F11.9°C 40.7°F4.8°C 62% 4.5 mph NW7.2 kmh NW 8.3 mph13.4 kmh 29.36 in994.2 mb 0.01 in0.3 mm 0.00 in0.0 mm 0.09 in2.3 mm
04:35 PM 53.4°F11.9°C 40.7°F4.8°C 62% 1.6 mph NW2.6 kmh NW 8.3 mph13.4 kmh 29.35 in993.9 mb 0.01 in0.3 mm 0.00 in0.0 mm 0.09 in2.3 mm
04:40 PM 53.6°F12.0°C 40.9°F4.9°C 62% 1.6 mph NW2.6 kmh NW 6.0 mph9.7 kmh 29.35 in993.9 mb 0.01 in0.3 mm 0.00 in0.0 mm 0.09 in2.3 mm
04:45 PM 53.8°F12.1°C 41.1°F5.1°C 62% Calm Calm 4.5 mph7.2 kmh 29.36 in994.2 mb 0.01 in0.3 mm 0.00 in0.0 mm 0.09 in2.3 mm
04:50 PM 54.0°F12.2°C 41.2°F5.1°C 62% 0.7 mph NW1.1 kmh NW 4.5 mph7.2 kmh 29.35 in993.9 mb 0.00 in0.0 mm 0.00 in0.0 mm 0.09 in2.3 mm
04:55 PM 54.5°F12.5°C 41.8°F5.4°C 62% Calm Calm 3.1 mph5.0 kmh 29.35 in993.9 mb 0.00 in0.0 mm 0.00 in0.0 mm 0.09 in2.3 mm
05:00 PM 54.5°F12.5°C 41.8°F5.4°C 62% Calm Calm 3.1 mph5.0 kmh 29.35 in993.9 mb 0.00 in0.0 mm 0.00 in0.0 mm 0.09 in2.3 mm
05:05 PM 55.0°F12.8°C 42.3°F5.7°C 62% 1.6 mph NW2.6 kmh NW 3.8 mph6.1 kmh 29.34 in993.6 mb 0.00 in0.0 mm 0.00 in0.0 mm 0.09 in2.3 mm
05:10 PM 54.9°F12.7°C 42.1°F5.6°C 62% 0.7 mph NW1.1 kmh NW 3.8 mph6.1 kmh 29.34 in993.6 mb 0.00 in0.0 mm 0.00 in0.0 mm 0.09 in2.3 mm
05:15 PM 55.0°F12.8°C 42.3°F5.7°C 62% Calm Calm 3.8 mph6.1 kmh 29.34 in993.6 mb 0.00 in0.0 mm 0.00 in0.0 mm 0.09 in2.3 mm
05:20 PM 55.2°F12.9°C 42.4°F5.8°C 62% Calm Calm 2.2 mph3.5 kmh 29.34 in993.6 mb 0.00 in0.0 mm 0.00 in0.0 mm 0.09 in2.3 mm
05:25 PM 55.6°F13.1°C 42.8°F6.0°C 62% Calm Calm 2.2 mph3.5 kmh 29.34 in993.6 mb 0.00 in0.0 mm 0.00 in0.0 mm 0.09 in2.3 mm
05:30 PM 55.6°F13.1°C 42.8°F6.0°C 62% 0.7 mph NW1.1 kmh NW 3.1 mph5.0 kmh 29.34 in993.6 mb 0.00 in0.0 mm 0.00 in0.0 mm 0.09 in2.3 mm
05:35 PM 55.6°F13.1°C 42.8°F6.0°C 62% Calm Calm 3.1 mph5.0 kmh 29.34 in993.6 mb 0.00 in0.0 mm 0.00 in0.0 mm 0.09 in2.3 mm
05:40 PM 55.4°F13.0°C 42.6°F5.9°C 62% Calm Calm 3.1 mph5.0 kmh 29.34 in993.6 mb 0.00 in0.0 mm 0.00 in0.0 mm 0.09 in2.3 mm
05:45 PM 55.0°F12.8°C 42.3°F5.7°C 62% Calm Calm 1.6 mph2.6 kmh 29.34 in993.6 mb 0.00 in0.0 mm 0.00 in0.0 mm 0.09 in2.3 mm
05:50 PM 54.7°F12.6°C 41.9°F5.5°C 62% 0.7 mph NW1.1 kmh NW 3.8 mph6.1 kmh 29.34 in993.6 mb 0.00 in0.0 mm 0.00 in0.0 mm 0.09 in2.3 mm
05:55 PM 54.7°F12.6°C 41.9°F5.5°C 62% Calm Calm 3.8 mph6.1 kmh 29.33 in993.2 mb 0.00 in0.0 mm 0.00 in0.0 mm 0.09 in2.3 mm
06:00 PM 55.0°F12.8°C 42.3°F5.7°C 62% 0.7 mph NW1.1 kmh NW 3.1 mph5.0 kmh 29.34 in993.6 mb 0.00 in0.0 mm 0.00 in0.0 mm 0.09 in2.3 mm
06:05 PM 55.0°F12.8°C 42.3°F5.7°C 62% Calm Calm 2.2 mph3.5 kmh 29.33 in993.2 mb 0.00 in0.0 mm 0.00 in0.0 mm 0.09 in2.3 mm
06:10 PM 54.9°F12.7°C 42.1°F5.6°C 62% Calm Calm 1.6 mph2.6 kmh 29.34 in993.6 mb 0.00 in0.0 mm 0.00 in0.0 mm 0.09 in2.3 mm
06:15 PM 54.7°F12.6°C 41.9°F5.5°C 62% Calm Calm 1.6 mph2.6 kmh 29.34 in993.6 mb 0.00 in0.0 mm 0.00 in0.0 mm 0.09 in2.3 mm
06:20 PM 54.9°F12.7°C 42.1°F5.6°C 62% Calm Calm 1.6 mph2.6 kmh 29.34 in993.6 mb 0.00 in0.0 mm 0.00 in0.0 mm 0.09 in2.3 mm
06:25 PM 54.9°F12.7°C 42.1°F5.6°C 62% 1.6 mph NW2.6 kmh NW 2.2 mph3.5 kmh 29.34 in993.6 mb 0.00 in0.0 mm 0.00 in0.0 mm 0.09 in2.3 mm
06:30 PM 54.7°F12.6°C 41.9°F5.5°C 62% Calm Calm 2.2 mph3.5 kmh 29.34 in993.6 mb 0.00 in0.0 mm 0.00 in0.0 mm 0.09 in2.3 mm
06:35 PM 54.7°F12.6°C 41.9°F5.5°C 62% Calm Calm 2.2 mph3.5 kmh 29.34 in993.6 mb 0.00 in0.0 mm 0.00 in0.0 mm 0.09 in2.3 mm
06:40 PM 54.9°F12.7°C 42.1°F5.6°C 62% Calm Calm 0.7 mph1.1 kmh 29.33 in993.2 mb 0.00 in0.0 mm 0.00 in0.0 mm 0.09 in2.3 mm
06:45 PM 54.7°F12.6°C 41.9°F5.5°C 62% Calm Calm 0.7 mph1.1 kmh 29.34 in993.6 mb 0.00 in0.0 mm 0.00 in0.0 mm 0.09 in2.3 mm
06:50 PM 54.5°F12.5°C 41.8°F5.4°C 62% 1.6 mph NW2.6 kmh NW 2.2 mph3.5 kmh 29.34 in993.6 mb 0.00 in0.0 mm 0.00 in0.0 mm 0.09 in2.3 mm
06:55 PM 54.3°F12.4°C 41.6°F5.3°C 62% 0.7 mph NW1.1 kmh NW 3.1 mph5.0 kmh 29.34 in993.6 mb 0.00 in0.0 mm 0.00 in0.0 mm 0.09 in2.3 mm
07:00 PM 54.3°F12.4°C 41.6°F5.3°C 62% Calm Calm 3.1 mph5.0 kmh 29.34 in993.6 mb 0.00 in0.0 mm 0.00 in0.0 mm 0.09 in2.3 mm
07:05 PM 54.3°F12.4°C 41.6°F5.3°C 62% Calm Calm 1.6 mph2.6 kmh 29.34 in993.6 mb 0.00 in0.0 mm 0.00 in0.0 mm 0.09 in2.3 mm
07:10 PM 54.3°F12.4°C 41.6°F5.3°C 62% Calm Calm 0.7 mph1.1 kmh 29.34 in993.6 mb 0.00 in0.0 mm 0.00 in0.0 mm 0.09 in2.3 mm
07:15 PM 54.3°F12.4°C 41.6°F5.3°C 62% Calm Calm -- 29.33 in993.2 mb 0.00 in0.0 mm 0.00 in0.0 mm 0.09 in2.3 mm
07:20 PM 54.3°F12.4°C 41.6°F5.3°C 62% Calm Calm -- 29.33 in993.2 mb 0.00 in0.0 mm 0.00 in0.0 mm 0.09 in2.3 mm
07:25 PM 54.1°F12.3°C 41.4°F5.2°C 62% Calm Calm -- 29.33 in993.2 mb 0.00 in0.0 mm 0.00 in0.0 mm 0.09 in2.3 mm
07:30 PM 54.0°F12.2°C 41.2°F5.1°C 62% Calm Calm 1.6 mph2.6 kmh 29.34 in993.6 mb 0.00 in0.0 mm 0.00 in0.0 mm 0.09 in2.3 mm
07:35 PM 53.8°F12.1°C 41.1°F5.1°C 62% Calm Calm 2.2 mph3.5 kmh 29.33 in993.2 mb 0.00 in0.0 mm 0.00 in0.0 mm 0.09 in2.3 mm
07:40 PM 53.8°F12.1°C 41.1°F5.1°C 62% 0.7 mph NW1.1 kmh NW 2.2 mph3.5 kmh 29.33 in993.2 mb 0.00 in0.0 mm 0.00 in0.0 mm 0.09 in2.3 mm
07:45 PM 54.0°F12.2°C 41.2°F5.1°C 62% 2.2 mph NW3.5 kmh NW 3.8 mph6.1 kmh 29.33 in993.2 mb 0.00 in0.0 mm 0.00 in0.0 mm 0.09 in2.3 mm
07:50 PM 53.8°F12.1°C 41.1°F5.1°C 62% 0.7 mph NW1.1 kmh NW 3.8 mph6.1 kmh 29.33 in993.2 mb 0.00 in0.0 mm 0.00 in0.0 mm 0.09 in2.3 mm
07:55 PM 53.6°F12.0°C 40.9°F4.9°C 62% 1.6 mph NW2.6 kmh NW 3.1 mph5.0 kmh 29.34 in993.6 mb 0.00 in0.0 mm 0.00 in0.0 mm 0.09 in2.3 mm
08:00 PM 53.4°F11.9°C 40.7°F4.8°C 62% Calm Calm 2.2 mph3.5 kmh 29.33 in993.2 mb 0.00 in0.0 mm 0.00 in0.0 mm 0.09 in2.3 mm
08:05 PM 53.1°F11.7°C 40.4°F4.7°C 62% Calm Calm 2.2 mph3.5 kmh 29.33 in993.2 mb 0.00 in0.0 mm 0.00 in0.0 mm 0.09 in2.3 mm
08:10 PM 52.7°F11.5°C 40.1°F4.5°C 62% Calm Calm 1.6 mph2.6 kmh 29.33 in993.2 mb 0.00 in0.0 mm 0.00 in0.0 mm 0.09 in2.3 mm
08:15 PM 52.5°F11.4°C 39.9°F4.4°C 62% Calm Calm 0.7 mph1.1 kmh 29.34 in993.6 mb 0.00 in0.0 mm 0.00 in0.0 mm 0.09 in2.3 mm
08:20 PM 52.5°F11.4°C 39.9°F4.4°C 62% Calm Calm -- 29.34 in993.6 mb 0.00 in0.0 mm 0.00 in0.0 mm 0.09 in2.3 mm
08:25 PM 52.3°F11.3°C 39.7°F4.3°C 62% Calm Calm 3.1 mph5.0 kmh 29.34 in993.6 mb 0.00 in0.0 mm 0.00 in0.0 mm 0.09 in2.3 mm
08:30 PM 52.3°F11.3°C 39.7°F4.3°C 62% Calm Calm 3.1 mph5.0 kmh 29.34 in993.6 mb 0.00 in0.0 mm 0.00 in0.0 mm 0.09 in2.3 mm
08:35 PM 52.3°F11.3°C 39.7°F4.3°C 62% Calm Calm 2.2 mph3.5 kmh 29.34 in993.6 mb 0.00 in0.0 mm 0.00 in0.0 mm 0.09 in2.3 mm
08:40 PM 52.3°F11.3°C 39.7°F4.3°C 62% Calm Calm 2.2 mph3.5 kmh 29.34 in993.6 mb 0.00 in0.0 mm 0.00 in0.0 mm 0.09 in2.3 mm
08:45 PM 52.3°F11.3°C 39.7°F4.3°C 62% Calm Calm -- 29.34 in993.6 mb 0.00 in0.0 mm 0.00 in0.0 mm 0.09 in2.3 mm
08:50 PM 52.3°F11.3°C 39.7°F4.3°C 62% Calm Calm 3.1 mph5.0 kmh 29.34 in993.6 mb 0.00 in0.0 mm 0.00 in0.0 mm 0.09 in2.3 mm
08:55 PM 52.2°F11.2°C 39.5°F4.2°C 62% Calm Calm 3.1 mph5.0 kmh 29.34 in993.6 mb 0.00 in0.0 mm 0.00 in0.0 mm 0.09 in2.3 mm
09:00 PM 52.2°F11.2°C 39.5°F4.2°C 62% Calm Calm 2.2 mph3.5 kmh 29.35 in993.9 mb 0.00 in0.0 mm 0.00 in0.0 mm 0.09 in2.3 mm
09:05 PM 52.0°F11.1°C 39.4°F4.1°C 62% 1.6 mph NW2.6 kmh NW 2.2 mph3.5 kmh 29.34 in993.6 mb 0.00 in0.0 mm 0.00 in0.0 mm 0.09 in2.3 mm
09:10 PM 52.0°F11.1°C 39.4°F4.1°C 62% Calm Calm 2.2 mph3.5 kmh 29.34 in993.6 mb 0.00 in0.0 mm 0.00 in0.0 mm 0.09 in2.3 mm
09:15 PM 52.0°F11.1°C 39.4°F4.1°C 62% Calm Calm 2.2 mph3.5 kmh 29.33 in993.2 mb 0.00 in0.0 mm 0.00 in0.0 mm 0.09 in2.3 mm
09:20 PM 51.6°F10.9°C 39.0°F3.9°C 62% Calm Calm 1.6 mph2.6 kmh 29.33 in993.2 mb 0.00 in0.0 mm 0.00 in0.0 mm 0.09 in2.3 mm
09:25 PM 51.3°F10.7°C 38.7°F3.7°C 62% Calm Calm 1.6 mph2.6 kmh 29.33 in993.2 mb 0.00 in0.0 mm 0.00 in0.0 mm 0.09 in2.3 mm
09:30 PM 51.1°F10.6°C 38.5°F3.6°C 62% Calm Calm 0.7 mph1.1 kmh 29.33 in993.2 mb 0.00 in0.0 mm 0.00 in0.0 mm 0.09 in2.3 mm
09:35 PM 50.9°F10.5°C 38.4°F3.6°C 62% Calm Calm 0.7 mph1.1 kmh 29.33 in993.2 mb 0.00 in0.0 mm 0.00 in0.0 mm 0.09 in2.3 mm
09:40 PM 50.7°F10.4°C 38.2°F3.4°C 62% Calm Calm 1.6 mph2.6 kmh 29.33 in993.2 mb 0.00 in0.0 mm 0.00 in0.0 mm 0.09 in2.3 mm
09:45 PM 50.5°F10.3°C 38.0°F3.3°C 62% 0.7 mph NW1.1 kmh NW 2.2 mph3.5 kmh 29.33 in993.2 mb 0.00 in0.0 mm 0.00 in0.0 mm 0.09 in2.3 mm
09:50 PM 50.2°F10.1°C 37.7°F3.2°C 62% 0.7 mph NW1.1 kmh NW 3.1 mph5.0 kmh 29.33 in993.2 mb 0.00 in0.0 mm 0.00 in0.0 mm 0.09 in2.3 mm
09:55 PM 50.0°F10.0°C 37.5°F3.1°C 62% 1.6 mph NW2.6 kmh NW 3.1 mph5.0 kmh 29.32 in992.9 mb 0.00 in0.0 mm 0.00 in0.0 mm 0.09 in2.3 mm
10:00 PM 49.6°F9.8°C 37.2°F2.9°C 62% Calm Calm 3.1 mph5.0 kmh 29.33 in993.2 mb 0.00 in0.0 mm 0.00 in0.0 mm 0.09 in2.3 mm
10:05 PM 49.5°F9.7°C 37.0°F2.8°C 62% Calm Calm 2.2 mph3.5 kmh 29.33 in993.2 mb 0.00 in0.0 mm 0.00 in0.0 mm 0.09 in2.3 mm
10:10 PM 49.5°F9.7°C 37.0°F2.8°C 62% Calm Calm 1.6 mph2.6 kmh 29.33 in993.2 mb 0.00 in0.0 mm 0.00 in0.0 mm 0.09 in2.3 mm
10:15 PM 49.3°F9.6°C 36.8°F2.7°C 62% 2.2 mph NW3.5 kmh NW 3.8 mph6.1 kmh 29.31 in992.6 mb 0.00 in0.0 mm 0.00 in0.0 mm 0.09 in2.3 mm
10:20 PM 49.1°F9.5°C 36.7°F2.6°C 62% 1.6 mph NW2.6 kmh NW 3.8 mph6.1 kmh 29.31 in992.6 mb 0.00 in0.0 mm 0.00 in0.0 mm 0.09 in2.3 mm
10:25 PM 49.1°F9.5°C 36.7°F2.6°C 62% Calm Calm 3.8 mph6.1 kmh 29.31 in992.6 mb 0.00 in0.0 mm 0.00 in0.0 mm 0.09 in2.3 mm
10:30 PM 49.1°F9.5°C 36.7°F2.6°C 62% 0.7 mph NW1.1 kmh NW 3.1 mph5.0 kmh 29.31 in992.6 mb 0.00 in0.0 mm 0.00 in0.0 mm 0.09 in2.3 mm
10:35 PM 49.3°F9.6°C 36.8°F2.7°C 62% Calm Calm 1.6 mph2.6 kmh 29.32 in992.9 mb 0.00 in0.0 mm 0.00 in0.0 mm 0.09 in2.3 mm
10:40 PM 49.5°F9.7°C 37.0°F2.8°C 62% Calm Calm 1.6 mph2.6 kmh 29.31 in992.6 mb 0.00 in0.0 mm 0.00 in0.0 mm 0.09 in2.3 mm
10:50 PM 49.3°F9.6°C 36.8°F2.7°C 62% 2.2 mph NW3.5 kmh NW 3.1 mph5.0 kmh 29.31 in992.6 mb 0.00 in0.0 mm 0.00 in0.0 mm 0.09 in2.3 mm
10:55 PM 48.9°F9.4°C 36.5°F2.5°C 62% 1.6 mph NW2.6 kmh NW 3.1 mph5.0 kmh 29.31 in992.6 mb 0.00 in0.0 mm 0.00 in0.0 mm 0.09 in2.3 mm
11:00 PM 48.7°F9.3°C 36.3°F2.4°C 62% Calm Calm 3.1 mph5.0 kmh 29.31 in992.6 mb 0.00 in0.0 mm 0.00 in0.0 mm 0.09 in2.3 mm
11:05 PM 48.7°F9.3°C 36.3°F2.4°C 62% Calm Calm 2.2 mph3.5 kmh 29.30 in992.2 mb 0.00 in0.0 mm 0.00 in0.0 mm 0.09 in2.3 mm
11:10 PM 48.7°F9.3°C 36.3°F2.4°C 62% Calm Calm 0.7 mph1.1 kmh 29.31 in992.6 mb 0.00 in0.0 mm 0.00 in0.0 mm 0.09 in2.3 mm
11:15 PM 48.9°F9.4°C 36.5°F2.5°C 62% Calm Calm -- 29.30 in992.2 mb 0.00 in0.0 mm 0.00 in0.0 mm 0.09 in2.3 mm
11:20 PM 48.9°F9.4°C 36.5°F2.5°C 62% 1.6 mph NW2.6 kmh NW 2.2 mph3.5 kmh 29.30 in992.2 mb 0.00 in0.0 mm 0.00 in0.0 mm 0.09 in2.3 mm
11:25 PM 48.9°F9.4°C 36.5°F2.5°C 62% 1.6 mph NW2.6 kmh NW 3.1 mph5.0 kmh 29.31 in992.6 mb 0.00 in0.0 mm 0.00 in0.0 mm 0.09 in2.3 mm
11:30 PM 48.6°F9.2°C 36.1°F2.3°C 62% Calm Calm 3.1 mph5.0 kmh 29.31 in992.6 mb 0.00 in0.0 mm 0.00 in0.0 mm 0.09 in2.3 mm
11:35 PM 48.6°F9.2°C 36.1°F2.3°C 62% Calm Calm 3.1 mph5.0 kmh 29.31 in992.6 mb 0.00 in0.0 mm 0.00 in0.0 mm 0.09 in2.3 mm
11:40 PM 48.6°F9.2°C 36.1°F2.3°C 62% Calm Calm 1.6 mph2.6 kmh 29.31 in992.6 mb 0.00 in0.0 mm 0.00 in0.0 mm 0.09 in2.3 mm
11:45 PM 48.6°F9.2°C 36.1°F2.3°C 62% 0.7 mph NW1.1 kmh NW 1.6 mph2.6 kmh 29.33 in993.2 mb 0.00 in0.0 mm 0.00 in0.0 mm 0.09 in2.3 mm
11:50 PM 48.6°F9.2°C 36.1°F2.3°C 62% 1.6 mph NW2.6 kmh NW 2.2 mph3.5 kmh 29.31 in992.6 mb 0.00 in0.0 mm 0.00 in0.0 mm 0.09 in2.3 mm
11:55 PM 48.6°F9.2°C 36.1°F2.3°C 62% Calm Calm 2.2 mph3.5 kmh 29.32 in992.9 mb 0.00 in0.0 mm 0.00 in0.0 mm 0.09 in2.3 mm